Terminal Aerodrome Forecast
Issued by NWS

Home | Current Version | Previous Version | Text Only | Print | Product List | Glossary On
Versions: 1 2 3 4 5 6 7 8 9 10 11 12
000
FTUS44 KCRP 280530
TAFALI
TAF
KALI 280530Z 2806/2906 15009KT P6SM SCT025 BKN150
      TEMPO 2807/2809 BKN025
     FM281500 16012KT P6SM SCT030 BKN250
     FM282000 14015G22KT P6SM VCTS SCT050CB BKN250
     FM290100 14008KT P6SM SCT035=

USA.gov is the U.S. government's official web portal to all federal, state and local government web resources and services.